Time;durP1;ratioP1;P1;durP2;ratioP2;P2;SDS_P1;SDS_P2;PMS_P1;PMS_P2;Temp;Humidity;BMP_temperature;BMP_pressure;BME280_temperature;BME280_humidity;BME280_pressure;Samples;Min_cycle;Max_cycle;Signal;HPM_P1;HPM_P2
2022/04/13 00:00:06;;;;;;;;;;;;;;;14.26;59.26;100971.25;5071570;28;20471;-69
2022/04/13 00:02:31;;;;;;;21.67;6.75;;;;;;;14.23;60.89;100965.97;5071006;28;19912;-69
2022/04/13 00:04:56;;;;;;;21.98;6.30;;;;;;;14.19;61.58;100970.41;5071444;28;20028;-69
2022/04/13 00:07:23;;;;;;;23.92;6.30;;;;;;;14.16;61.92;100965.13;5071294;28;20553;-69
2022/04/13 00:09:49;;;;;;;21.10;6.28;;;;;;;14.13;61.55;100962.47;5071188;28;20024;-69
2022/04/13 00:12:15;;;;;;;20.77;6.28;;;;;;;14.06;61.99;100963.44;5070533;28;20029;-69
2022/04/13 00:14:40;;;;;;;20.33;6.03;;;;;;;13.93;63.20;100968.81;5069242;28;20054;-69
2022/04/13 00:17:06;;;;;;;21.98;6.18;;;;;;;13.86;64.01;100967.13;5071535;28;20048;-68
2022/04/13 00:19:31;;;;;;;21.15;6.00;;;;;;;13.85;64.08;100973.34;5071168;28;20020;-69
2022/04/13 00:21:56;;;;;;;19.90;6.00;;;;;;;13.70;65.34;100974.31;5070970;28;20025;-69
2022/04/13 00:24:22;;;;;;;21.58;6.20;;;;;;;13.62;66.13;100980.59;5069568;28;20028;-69
2022/04/13 00:26:47;;;;;;;22.23;6.43;;;;;;;13.49;67.34;100977.97;5071497;28;20070;-69
2022/04/13 00:29:13;;;;;;;23.00;6.22;;;;;;;13.39;68.33;100985.09;5071884;28;20035;-68
2022/04/13 00:31:39;;;;;;;22.10;6.10;;;;;;;13.35;68.71;100987.78;5070851;28;20410;-69
2022/04/13 00:34:05;;;;;;;20.50;5.88;;;;;;;13.39;68.60;100986.88;5072221;28;20020;-69
2022/04/13 00:36:30;;;;;;;20.75;6.07;;;;;;;13.41;68.55;100982.44;5074828;28;20043;-69
2022/04/13 00:38:56;;;;;;;21.83;6.05;;;;;;;13.40;68.31;100991.31;5074020;28;20028;-69
2022/04/13 00:41:21;;;;;;;21.25;5.75;;;;;;;13.36;68.99;100989.56;5074649;28;20032;-69
2022/04/13 00:44:01;;;;;;;20.95;6.05;;;;;;;13.27;70.13;101001.06;5075208;28;20490;-69
2022/04/13 00:46:27;;;;;;;23.27;6.60;;;;;;;13.14;71.42;101000.22;5072936;28;20067;-69
2022/04/13 00:48:52;;;;;;;21.60;6.53;;;;;;;13.03;72.92;101002.03;5074781;28;20063;-69
2022/04/13 00:51:17;;;;;;;22.75;6.93;;;;;;;12.96;74.17;101001.19;5072020;28;20029;-69
2022/04/13 00:53:44;;;;;;;22.33;6.80;;;;;;;12.82;75.40;100998.56;5073175;28;20060;-68
2022/04/13 00:56:10;;;;;;;22.35;7.07;;;;;;;12.79;75.64;101005.66;5074159;28;20112;-69
2022/04/13 00:58:39;;;;;;;20.58;7.03;;;;;;;12.70;77.48;101010.09;5074380;28;20031;-69
2022/04/13 01:01:06;;;;;;;22.90;7.03;;;;;;;12.72;77.20;101012.72;5073606;28;20028;-69
2022/04/13 01:03:36;;;;;;;21.80;7.05;;;;;;;12.70;78.20;101020.69;5074221;28;20037;-69
2022/04/13 01:06:01;;;;;;;21.75;7.05;;;;;;;12.64;79.46;101015.41;5072001;28;20056;-69
2022/04/13 01:08:28;;;;;;;22.45;7.47;;;;;;;12.65;79.91;101021.59;5074091;28;20106;-68
2022/04/13 01:10:54;;;;;;;22.95;7.85;;;;;;;12.65;80.08;101024.22;5068503;28;20527;-68
2022/04/13 01:13:20;;;;;;;21.00;6.97;;;;;;;12.59;81.66;101026.91;5073829;28;20103;-69
2022/04/13 01:15:46;;;;;;;21.83;7.63;;;;;;;12.59;81.44;101032.22;5074409;28;20024;-68
2022/04/13 01:18:13;;;;;;;23.00;7.70;;;;;;;12.58;82.13;101033.09;5074264;28;20379;-68
2022/04/13 01:20:48;;;;;;;22.80;7.88;;;;;;;12.54;81.96;101051.66;5074386;28;20127;-68
2022/04/13 01:23:13;;;;;;;22.35;7.32;;;;;;;12.49;83.69;101048.09;5072325;28;20404;-69
2022/04/13 01:25:47;;;;;;;23.05;8.25;;;;;;;12.49;85.04;101049.88;5073610;28;20036;-69
2022/04/13 01:28:12;;;;;;;23.88;8.70;;;;;;;12.43;86.14;101047.22;5073635;28;20029;-69
2022/04/13 01:30:37;;;;;;;22.63;8.88;;;;;;;12.37;87.91;101054.28;5074110;28;20032;-69
2022/04/13 01:33:03;;;;;;;24.95;9.60;;;;;;;12.41;88.10;101059.59;5073319;28;20021;-69
2022/04/13 01:35:29;;;;;;;24.52;9.70;;;;;;;12.42;88.31;101064.03;5073687;28;20036;-69
2022/04/13 01:37:54;;;;;;;23.75;9.98;;;;;;;12.33;90.22;101064.91;5073725;28;20107;-68
2022/04/13 01:40:19;;;;;;;23.67;9.50;;;;;;;12.37;90.83;101069.31;5073367;28;20111;-68
2022/04/13 01:42:47;;;;;;;23.00;9.73;;;;;;;12.36;91.71;101067.53;5073448;28;20370;-68
2022/04/13 01:45:19;;;;;;;24.80;9.98;;;;;;;12.33;92.31;101072.84;5072830;28;20467;-68
2022/04/13 01:47:45;;;;;;;25.10;10.40;;;;;;;12.30;92.94;101076.38;5073588;28;20073;-69
2022/04/13 01:50:10;;;;;;;25.42;10.63;;;;;;;12.26;94.87;101082.59;5073761;28;20029;-69
2022/04/13 01:52:36;;;;;;;25.20;11.13;;;;;;;12.24;97.34;101083.44;5070556;28;20116;-68
2022/04/13 01:55:01;;;;;;;25.20;10.60;;;;;;;12.27;97.82;101079.03;5073484;28;20089;-69
2022/04/13 01:57:26;;;;;;;24.95;11.23;;;;;;;12.29;99.30;101081.69;5072574;28;20060;-68
2022/04/13 01:59:52;;;;;;;26.30;11.25;;;;;;;12.20;100.00;101082.53;5073345;28;20429;-68
2022/04/13 02:02:17;;;;;;;26.83;10.95;;;;;;;12.13;100.00;101080.78;5073102;28;20352;-69
2022/04/13 02:04:43;;;;;;;24.55;10.93;;;;;;;12.06;100.00;101086.94;5072819;28;20391;-68
2022/04/13 02:07:08;;;;;;;25.77;11.50;;;;;;;12.02;100.00;101083.41;5073264;28;20522;-68
2022/04/13 02:09:33;;;;;;;27.77;11.32;;;;;;;11.97;100.00;101088.72;5072889;28;20026;-68
2022/04/13 02:11:59;;;;;;;24.20;11.35;;;;;;;11.96;100.00;101092.22;5073167;28;20033;-68
2022/04/13 02:14:24;;;;;;;24.65;11.82;;;;;;;11.92;100.00;101092.19;5072976;28;20386;-69
2022/04/13 02:16:49;;;;;;;24.85;12.13;;;;;;;11.87;100.00;101100.13;5072797;28;20032;-68
2022/04/13 02:19:15;;;;;;;24.50;11.80;;;;;;;11.81;100.00;101093.03;5073081;28;20028;-69
2022/04/13 02:21:40;;;;;;;23.95;11.52;;;;;;;11.79;100.00;101107.16;5072887;28;20028;-69
2022/04/13 02:24:07;;;;;;;25.70;12.02;;;;;;;11.74;100.00;101107.13;5072504;28;20464;-68
2022/04/13 02:26:32;;;;;;;24.98;12.27;;;;;;;11.74;100.00;101109.78;5072726;28;20377;-69
2022/04/13 02:28:58;;;;;;;25.25;11.45;;;;;;;11.69;100.00;101107.13;5073220;28;20032;-68
2022/04/13 02:31:23;;;;;;;26.27;11.98;;;;;;;11.63;100.00;101101.78;5072616;28;20029;-69
2022/04/13 02:33:53;;;;;;;25.63;12.68;;;;;;;11.64;100.00;101102.69;5072594;28;20107;-68
2022/04/13 02:36:18;;;;;;;25.75;12.15;;;;;;;11.60;100.00;101107.06;5068744;28;20089;-68
2022/04/13 02:38:43;;;;;;;24.80;11.88;;;;;;;11.58;100.00;101107.97;5072762;28;20421;-69
2022/04/13 02:41:08;;;;;;;27.65;12.45;;;;;;;11.51;100.00;101110.56;5072040;28;20441;-69
2022/04/13 02:43:34;;;;;;;28.77;13.13;;;;;;;11.48;100.00;101120.25;5072729;28;20048;-69
2022/04/13 02:45:59;;;;;;;25.60;12.20;;;;;;;11.42;100.00;101118.47;5072623;28;20418;-68
2022/04/13 02:48:25;;;;;;;25.33;12.20;;;;;;;11.36;100.00;101118.44;5070840;28;20024;-69
2022/04/13 02:50:50;;;;;;;28.33;13.45;;;;;;;11.38;100.00;101118.44;5072722;28;20023;-69
2022/04/13 02:53:15;;;;;;;26.40;12.82;;;;;;;11.38;100.00;101121.09;5071216;28;20079;-68
2022/04/13 02:55:42;;;;;;;25.42;12.70;;;;;;;11.32;100.00;101127.25;5071939;28;20027;-69
2022/04/13 02:58:07;;;;;;;26.65;13.05;;;;;;;11.37;100.00;101125.47;5071402;28;20360;-68
2022/04/13 03:00:34;;;;;;;25.05;12.57;;;;;;;11.31;100.00;101130.75;5072522;28;20023;-68
2022/04/13 03:02:59;;;;;;;26.40;13.18;;;;;;;11.33;100.00;101131.66;5071694;28;20040;-68
2022/04/13 03:05:25;;;;;;;25.95;13.05;;;;;;;11.27;100.00;101126.31;5072224;28;20017;-69
2022/04/13 03:07:51;;;;;;;26.50;12.70;;;;;;;11.33;100.00;101124.59;5072009;28;20398;-68
2022/04/13 03:10:16;;;;;;;25.52;12.25;;;;;;;11.32;100.00;101127.25;5071750;28;20112;-68
2022/04/13 03:12:44;;;;;;;27.00;12.60;;;;;;;11.23;100.00;101129.84;5071742;28;20031;-69
2022/04/13 03:15:11;;;;;;;27.98;12.65;;;;;;;11.15;100.00;101130.69;5071892;28;20021;-68
2022/04/13 03:17:36;;;;;;;27.27;12.35;;;;;;;11.14;100.00;101123.59;5069639;28;20059;-68
2022/04/13 03:20:02;;;;;;;25.20;12.30;;;;;;;11.13;100.00;101127.13;5072045;28;20056;-69
2022/04/13 03:22:27;;;;;;;25.92;12.30;;;;;;;11.20;100.00;101122.75;5071937;28;20411;-68
2022/04/13 03:24:53;;;;;;;26.13;12.45;;;;;;;11.16;100.00;101121.84;5069499;28;20387;-67
2022/04/13 03:27:18;;;;;;;25.52;12.55;;;;;;;11.14;100.00;101123.59;5071719;28;20029;-68
2022/04/13 03:29:44;;;;;;;25.98;12.30;;;;;;;11.18;100.00;101131.56;5072181;28;20024;-68
2022/04/13 03:32:09;;;;;;;26.98;12.93;;;;;;;11.07;100.00;101120.91;5071494;28;20103;-68
2022/04/13 03:34:35;;;;;;;26.52;12.75;;;;;;;10.94;100.00;101126.09;5072159;28;20063;-68
2022/04/13 03:37:01;;;;;;;25.30;12.45;;;;;;;10.84;100.00;101124.28;5070903;28;20032;-68
2022/04/13 03:39:28;;;;;;;26.25;12.40;;;;;;;10.77;100.00;101133.03;5071372;28;20044;-67
2022/04/13 03:41:53;;;;;;;23.98;12.48;;;;;;;10.73;100.00;101126.84;5071473;28;20447;-68
2022/04/13 03:44:19;;;;;;;24.80;13.68;;;;;;;10.60;100.00;101143.44;5071403;28;20028;-67
2022/04/13 03:46:44;;;;;;;28.33;12.90;;;;;;;10.37;100.00;101138.84;5070875;28;20028;-68
2022/04/13 03:49:10;;;;;;;27.77;13.48;;;;;;;10.37;100.00;101141.50;5071604;28;20028;-68
2022/04/13 03:51:36;;;;;;;26.15;12.80;;;;;;;10.32;100.00;101147.56;5070588;28;20029;-68
2022/04/13 03:54:01;;;;;;;26.58;13.13;;;;;;;10.32;100.00;101143.16;5067844;28;20376;-68
2022/04/13 03:56:28;;;;;;;26.38;13.02;;;;;;;10.32;100.00;101139.63;5071529;28;20394;-68
2022/04/13 03:58:54;;;;;;;26.30;14.00;;;;;;;10.28;100.00;101146.63;5070266;28;20033;-68
2022/04/13 04:01:19;;;;;;;27.05;14.40;;;;;;;10.27;100.00;101148.41;5071273;28;20024;-68
2022/04/13 04:03:44;;;;;;;27.73;13.65;;;;;;;10.25;100.00;101154.53;5069959;28;20395;-68
2022/04/13 04:06:10;;;;;;;28.80;14.18;;;;;;;10.25;100.00;101155.44;5071260;28;20024;-68
2022/04/13 04:08:35;;;;;;;26.45;13.63;;;;;;;10.22;100.00;101154.50;5071985;28;20072;-68
2022/04/13 04:11:01;;;;;;;28.80;14.18;;;;;;;10.20;100.00;101165.03;5075625;28;20021;-68
2022/04/13 04:13:26;;;;;;;27.92;13.98;;;;;;;10.08;100.00;101165.81;5075254;28;20487;-69
2022/04/13 04:15:52;;;;;;;28.58;14.20;;;;;;;10.13;100.00;101168.50;5075552;28;20127;-68
2022/04/13 04:18:18;;;;;;;28.77;14.00;;;;;;;10.17;100.00;101170.31;5071781;28;20060;-68
2022/04/13 04:20:44;;;;;;;26.73;14.48;;;;;;;10.25;100.00;101173.03;5070009;28;20032;-68
2022/04/13 04:23:09;;;;;;;27.65;14.13;;;;;;;10.29;100.00;101177.47;5074588;28;20111;-68
2022/04/13 04:25:34;;;;;;;29.48;14.77;;;;;;;10.29;100.00;101175.75;5070323;28;20017;-69
2022/04/13 04:28:00;;;;;;;25.83;13.70;;;;;;;10.39;100.00;101175.84;5075372;28;20363;-69
2022/04/13 04:30:25;;;;;;;27.98;14.65;;;;;;;10.40;100.00;101178.50;5074877;28;20066;-69
2022/04/13 04:32:51;;;;;;;28.25;13.55;;;;;;;10.41;100.00;101182.03;5074554;28;20506;-68
2022/04/13 04:35:16;;;;;;;25.15;12.55;;;;;;;10.53;100.00;101181.25;5075147;28;20047;-68
2022/04/13 04:37:41;;;;;;;27.67;13.77;;;;;;;10.50;100.00;101175.94;5075165;28;20060;-69
2022/04/13 04:40:07;;;;;;;24.67;12.88;;;;;;;10.55;100.00;101190.13;5074728;28;20049;-69
2022/04/13 04:42:49;;;;;;;27.95;13.52;;;;;;;10.54;100.00;101199.81;5071915;28;20070;-68
2022/04/13 04:45:19;;;;;;;28.30;15.95;;;;;;;10.52;100.00;101200.66;5073942;28;20078;-68
2022/04/13 04:47:46;;;;;;;26.92;14.43;;;;;;;10.57;100.00;101204.22;5073816;28;20048;-69
2022/04/13 04:50:11;;;;;;;30.08;16.38;;;;;;;10.65;100.00;101213.13;5074475;28;20088;-68
2022/04/13 04:52:54;;;;;;;28.20;15.60;;;;;;;10.64;100.00;101217.53;5074001;28;20032;-67
2022/04/13 04:55:20;;;;;;;28.23;16.52;;;;;;;10.64;100.00;101217.53;5073194;28;20123;-68
2022/04/13 04:57:46;;;;;;;29.80;16.67;;;;;;;10.67;100.00;101227.22;5073963;28;20108;-69
2022/04/13 05:00:14;;;;;;;26.92;15.70;;;;;;;10.70;100.00;101227.25;5074336;28;20027;-69
2022/04/13 05:02:40;;;;;;;29.13;16.58;;;;;;;10.72;100.00;101222.91;5074154;28;20025;-68
2022/04/13 05:05:06;;;;;;;29.15;15.55;;;;;;;10.67;100.00;101227.22;5074457;28;20050;-68
2022/04/13 05:07:32;;;;;;;29.27;15.98;;;;;;;10.71;100.00;101228.16;5074253;28;20499;-68
2022/04/13 05:10:01;;;;;;;28.65;16.70;;;;;;;10.74;100.00;101230.84;5074823;28;20048;-69
2022/04/13 05:12:27;;;;;;;29.42;17.02;;;;;;;10.78;100.00;101230.88;5074136;28;20115;-69
2022/04/13 05:14:54;;;;;;;27.63;17.17;;;;;;;10.82;100.00;101237.09;5074582;28;20029;-69
2022/04/13 05:17:21;;;;;;;29.80;18.50;;;;;;;10.84;100.00;101239.75;5073820;28;20029;-69
2022/04/13 05:19:46;;;;;;;30.90;17.55;;;;;;;10.92;100.00;101241.59;5073740;28;20045;-69
2022/04/13 05:22:11;;;;;;;29.90;17.90;;;;;;;10.99;100.00;101246.06;5073700;28;20021;-69
2022/04/13 05:24:36;;;;;;;32.00;18.40;;;;;;;11.08;100.00;101244.38;5074252;28;20475;-69
2022/04/13 05:27:02;;;;;;;30.42;18.45;;;;;;;11.21;100.00;101248.88;5073030;28;20025;-69
2022/04/13 05:29:27;;;;;;;31.75;19.48;;;;;;;11.31;100.00;101252.50;5073271;28;20024;-67
2022/04/13 05:31:53;;;;;;;30.77;18.27;;;;;;;11.33;100.00;101258.72;5073844;28;20032;-69
2022/04/13 05:34:18;;;;;;;30.80;19.23;;;;;;;11.31;100.00;101258.69;5074098;28;20056;-68
2022/04/13 05:36:43;;;;;;;34.35;20.48;;;;;;;11.29;100.00;101262.19;5073999;28;20475;-68
2022/04/13 05:39:09;;;;;;;31.33;20.77;;;;;;;11.30;100.00;101271.88;5073828;28;20107;-70
2022/04/13 05:41:35;;;;;;;33.75;21.65;;;;;;;11.37;100.00;101264.91;5073475;28;20119;-70
2022/04/13 05:44:00;;;;;;;30.88;20.90;;;;;;;11.50;100.00;101280.00;5073682;28;20052;-67
2022/04/13 05:46:26;;;;;;;34.50;21.45;;;;;;;11.64;100.00;101278.31;5073954;28;20423;-69
2022/04/13 05:48:51;;;;;;;32.03;22.17;;;;;;;11.74;100.00;101274.00;5072955;28;20696;-70
2022/04/13 05:51:16;;;;;;;32.80;22.63;;;;;;;11.80;100.00;101274.03;5073530;28;20058;-69
2022/04/13 05:53:41;;;;;;;33.90;22.85;;;;;;;11.93;100.00;101277.66;5073873;28;20020;-68
2022/04/13 05:56:07;;;;;;;34.83;24.15;;;;;;;11.96;100.00;101277.69;5073600;28;20459;-70
2022/04/13 05:58:32;;;;;;;35.35;24.85;;;;;;;12.08;100.00;101268.91;5073608;28;20454;-69
2022/04/13 06:00:58;;;;;;;35.63;25.23;;;;;;;12.11;100.00;101278.63;5073108;28;20101;-69
2022/04/13 06:03:23;;;;;;;35.40;25.42;;;;;;;12.21;100.00;101286.63;5071114;28;20492;-70
2022/04/13 06:05:51;;;;;;;35.70;26.05;;;;;;;12.29;100.00;101293.72;5073396;28;20138;-68
2022/04/13 06:08:17;;;;;;;37.47;26.45;;;;;;;12.31;100.00;101295.50;5073006;28;20451;-68
2022/04/13 06:10:43;;;;;;;37.03;26.58;;;;;;;12.34;100.00;101286.69;5073315;28;20032;-70
2022/04/13 06:13:09;;;;;;;34.58;25.80;;;;;;;12.38;100.00;101299.97;5072991;28;20028;-68
2022/04/13 06:15:35;;;;;;;37.78;28.40;;;;;;;12.37;100.00;101300.84;5071493;28;20056;-69
2022/04/13 06:18:00;;;;;;;38.97;28.25;;;;;;;12.41;100.00;101304.41;5072950;28;20035;-68
2022/04/13 06:20:26;;;;;;;37.45;27.42;;;;;;;12.46;100.00;101301.75;5071373;28;20033;-68
2022/04/13 06:22:52;;;;;;;36.70;27.55;;;;;;;12.51;100.00;101311.50;5065828;28;20033;-68
2022/04/13 06:25:18;;;;;;;38.42;26.50;;;;;;;12.53;100.00;101315.03;5070965;28;20031;-68
2022/04/13 06:27:44;;;;;;;36.13;27.08;;;;;;;12.50;100.00;101317.69;5073195;28;20503;-69
2022/04/13 06:30:11;;;;;;;37.38;27.85;;;;;;;12.53;100.00;101307.09;5072802;28;20051;-69
2022/04/13 06:32:39;;;;;;;33.97;26.00;;;;;;;12.47;100.00;101307.06;5071907;28;20024;-68
2022/04/13 06:35:07;;;;;;;37.60;28.23;;;;;;;12.41;100.00;101312.34;5072528;28;20024;-70
2022/04/13 06:37:34;;;;;;;38.55;28.83;;;;;;;12.36;100.00;101309.69;5070794;28;20047;-67
2022/04/13 06:39:59;;;;;;;37.80;27.67;;;;;;;12.34;100.00;101321.16;5072125;28;20080;-67
2022/04/13 06:42:25;;;;;;;38.60;28.83;;;;;;;12.31;100.00;101315.84;5072558;28;20111;-67
2022/04/13 06:44:54;;;;;;;37.80;28.77;;;;;;;12.31;100.00;101318.50;5072320;28;20475;-67
2022/04/13 06:47:20;;;;;;;37.63;26.90;;;;;;;12.41;100.00;101327.34;5072175;28;20552;-68
2022/04/13 06:49:46;;;;;;;36.35;27.33;;;;;;;12.44;100.00;101340.66;5070543;28;20079;-68
2022/04/13 06:52:12;;;;;;;37.92;27.52;;;;;;;12.50;100.00;101338.91;5071868;28;20371;-68
2022/04/13 06:54:37;;;;;;;38.28;28.70;;;;;;;12.61;100.00;101338.06;5070649;28;20035;-67
2022/04/13 06:57:03;;;;;;;35.42;26.45;;;;;;;12.72;100.00;101353.13;5072579;28;20037;-69
2022/04/13 06:59:28;;;;;;;37.28;27.75;;;;;;;12.85;100.00;101356.72;5072498;28;20024;-66
2022/04/13 07:01:53;;;;;;;39.17;28.70;;;;;;;12.91;100.00;101359.38;5070003;28;20021;-67
2022/04/13 07:04:19;;;;;;;40.45;28.33;;;;;;;12.95;100.00;101360.28;5064945;28;20024;-67
2022/04/13 07:06:44;;;;;;;39.65;28.85;;;;;;;13.02;100.00;101367.38;5071778;28;20040;-72
2022/04/13 07:09:09;;;;;;;35.75;28.30;;;;;;;13.03;100.00;101362.94;5072028;28;20066;-71
2022/04/13 07:11:35;;;;;;;40.03;28.23;;;;;;;13.06;100.00;101369.16;5071693;28;20111;-68
2022/04/13 07:14:00;;;;;;;38.33;28.40;;;;;;;13.07;100.00;101375.34;5072351;28;20078;-69
2022/04/13 07:16:25;;;;;;;37.10;28.00;;;;;;;13.09;100.00;101376.22;5071785;28;20028;-67
2022/04/13 07:18:51;;;;;;;36.42;28.45;;;;;;;13.14;100.00;101376.25;5068269;28;20101;-67
2022/04/13 07:21:16;;;;;;;38.35;29.08;;;;;;;13.18;100.00;101386.88;5065413;28;20433;-68
2022/04/13 07:23:42;;;;;;;37.85;27.67;;;;;;;13.29;100.00;101399.28;5070409;28;20048;-68
2022/04/13 07:26:07;;;;;;;38.88;28.15;;;;;;;13.40;100.00;101389.63;5071587;28;20059;-68
2022/04/13 07:28:32;;;;;;;37.75;28.00;;;;;;;13.45;100.00;101393.16;5068442;28;20111;-67
2022/04/13 07:30:58;;;;;;;36.92;26.50;;;;;;;13.51;100.00;101402.91;5072042;28;20486;-69
2022/04/13 07:33:23;;;;;;;38.60;26.63;;;;;;;13.59;100.00;101399.34;5071649;28;20032;-68
2022/04/13 07:35:48;;;;;;;35.35;26.13;;;;;;;13.78;100.00;101408.22;5070776;28;20055;-68
2022/04/13 07:38:14;;;;;;;35.38;26.63;;;;;;;13.87;100.00;101406.47;5069766;28;20036;-70
2022/04/13 07:40:39;;;;;;;36.85;25.88;;;;;;;13.77;100.00;101417.09;5070699;28;20051;-68
2022/04/13 07:43:07;;;;;;;35.60;27.20;;;;;;;13.60;100.00;101408.19;5071545;28;20032;-69
2022/04/13 07:45:32;;;;;;;35.90;25.92;;;;;;;13.58;100.00;101412.66;5070601;28;20055;-69
2022/04/13 07:47:57;;;;;;;38.65;27.13;;;;;;;13.66;100.00;101402.00;5071435;28;20021;-68
2022/04/13 07:50:23;;;;;;;36.13;26.30;;;;;;;13.73;100.00;101410.00;5071215;28;20020;-68
2022/04/13 07:52:49;;;;;;;36.67;27.27;;;;;;;13.96;100.00;101406.44;5071720;28;20027;-68
2022/04/13 07:55:14;;;;;;;34.83;24.83;;;;;;;14.15;100.00;101417.94;5071653;28;20024;-69
2022/04/13 07:57:40;;;;;;;37.28;24.92;;;;;;;14.17;100.00;101416.19;5071645;28;20051;-68
2022/04/13 08:00:09;;;;;;;35.83;24.88;;;;;;;14.24;100.00;101417.03;5071450;28;20127;-69
2022/04/13 08:02:35;;;;;;;34.55;25.23;;;;;;;14.28;100.00;101414.41;5070566;28;20025;-68
2022/04/13 08:05:01;;;;;;;36.60;25.13;;;;;;;14.57;100.00;101431.16;5065402;28;20028;-69
2022/04/13 08:07:26;;;;;;;33.08;23.98;;;;;;;14.64;100.00;101428.50;5071110;28;20483;-69
2022/04/13 08:09:52;;;;;;;34.85;25.15;;;;;;;14.88;100.00;101432.00;5070762;28;20040;-69
2022/04/13 08:12:17;;;;;;;34.22;22.83;;;;;;;14.91;100.00;101434.63;5071609;28;20063;-69
2022/04/13 08:14:46;;;;;;;32.42;22.27;;;;;;;14.93;100.00;101430.16;5071413;28;20056;-69
2022/04/13 08:17:15;;;;;;;31.98;21.73;;;;;;;15.18;100.00;101434.50;5071525;28;20032;-69
2022/04/13 08:19:40;;;;;;;31.83;21.65;;;;;;;15.27;100.00;101431.78;5071852;28;20082;-69
2022/04/13 08:22:06;;;;;;;32.35;22.20;;;;;;;15.52;100.00;101440.50;5070712;28;20025;-70
2022/04/13 08:24:31;;;;;;;31.83;20.45;;;;;;;15.75;100.00;101442.13;5070662;28;20024;-70
2022/04/13 08:26:59;;;;;;;29.92;19.00;;;;;;;15.84;100.00;101450.06;5071750;28;20021;-73
2022/04/13 08:29:25;;;;;;;30.95;19.10;;;;;;;15.56;100.00;101452.91;5070840;28;20025;-69
2022/04/13 08:31:51;;;;;;;27.77;17.15;;;;;;;15.54;100.00;101443.13;5069425;28;20131;-69
2022/04/13 08:34:16;;;;;;;31.08;18.63;;;;;;;15.65;100.00;101452.88;5071407;28;20037;-68
2022/04/13 08:36:41;;;;;;;29.42;18.67;;;;;;;15.59;100.00;101455.53;5070901;28;20032;-69
2022/04/13 08:39:13;;;;;;;28.70;18.45;;;;;;;15.57;100.00;101453.81;5070842;28;20032;-69
2022/04/13 08:41:57;;;;;;;27.83;17.45;;;;;;;15.52;100.00;101453.81;5070139;28;20040;-69
2022/04/13 08:44:36;;;;;;;28.75;18.15;;;;;;;15.64;100.00;101458.16;5068537;28;20545;-68
2022/04/13 08:47:10;;;;;;;30.08;18.17;;;;;;;15.71;100.00;101456.38;5069640;28;20028;-69
2022/04/13 08:49:39;;;;;;;28.70;17.52;;;;;;;15.90;100.00;101465.13;5070642;28;20031;-69
2022/04/13 08:52:08;;;;;;;28.10;17.05;;;;;;;16.33;100.00;101464.75;5070474;28;20525;-69
2022/04/13 08:54:44;;;;;;;30.70;18.23;;;;;;;16.64;100.00;101465.31;5071241;28;20039;-69
2022/04/13 08:57:11;;;;;;;29.75;17.58;;;;;;;17.11;100.00;101462.13;5074763;28;20453;-69
2022/04/13 08:59:52;;;;;;;27.33;15.98;;;;;;;17.22;100.00;101462.88;5074986;28;20513;-69
2022/04/13 09:02:17;;;;;;;27.33;15.85;;;;;;;17.30;100.00;101465.44;5072905;28;20040;-69
2022/04/13 09:04:45;;;;;;;27.40;15.85;;;;;;;17.16;100.00;101470.97;5074119;28;20448;-69
2022/04/13 09:07:13;;;;;;;25.92;15.18;;;;;;;17.00;100.00;101479.19;5074806;28;20028;-69
2022/04/13 09:09:46;;;;;;;27.77;16.52;;;;;;;17.06;100.00;101479.09;5072341;28;20032;-69
2022/04/13 09:12:13;;;;;;;;;;;;;;;17.46;100.00;101476.78;5071976;28;20423;-69
2022/04/13 09:14:39;;;;;;;30.17;17.45;;;;;;;17.82;100.00;101474.47;5071156;28;19919;-69
2022/04/13 09:17:05;;;;;;;30.67;19.08;;;;;;;17.82;100.00;101482.50;5063753;28;20100;-71
2022/04/13 09:19:32;;;;;;;29.83;19.00;;;;;;;17.71;100.00;101488.91;5065771;28;20103;-73
2022/04/13 09:21:58;;;;;;;27.88;18.23;;;;;;;17.52;100.00;101493.63;5064120;28;20029;-71
2022/04/13 09:24:26;;;;;;;28.40;17.88;;;;;;;17.42;100.00;101495.53;5064823;28;20475;-70
2022/04/13 09:26:52;;;;;;;28.85;18.23;;;;;;;17.23;100.00;101496.72;5068488;28;20032;-71
2022/04/13 09:29:17;;;;;;;27.80;18.15;;;;;;;17.24;100.00;101495.78;5074604;28;20470;-69
2022/04/13 09:31:42;;;;;;;27.20;17.48;;;;;;;17.43;100.00;101496.44;5073529;28;20016;-70
2022/04/13 09:34:09;;;;;;;27.50;17.20;;;;;;;17.46;100.00;101511.53;5072646;28;20025;-70
2022/04/13 09:36:35;;;;;;;27.95;17.48;;;;;;;17.24;100.00;101506.47;5074085;28;20430;-69
2022/04/13 09:39:01;;;;;;;27.63;16.85;;;;;;;17.05;100.00;101508.50;5073721;28;20082;-69
2022/04/13 09:41:37;;;;;;;27.70;17.67;;;;;;;17.01;100.00;101512.13;5073045;28;20581;-70
2022/04/13 09:44:13;;;;;;;27.58;18.25;;;;;;;16.57;100.00;101519.66;5073083;28;20035;-69
2022/04/13 09:46:39;;;;;;;27.30;16.40;;;;;;;16.59;100.00;101515.22;5073054;28;20021;-70
2022/04/13 09:49:15;;;;;;;27.23;16.92;;;;;;;16.54;100.00;101525.94;5073576;28;20027;-70
2022/04/13 09:51:43;;;;;;;27.50;16.23;;;;;;;16.61;100.00;101526.72;5069939;28;20028;-71
2022/04/13 09:54:10;;;;;;;27.40;17.10;;;;;;;16.53;100.00;101524.16;5072556;28;20111;-68
2022/04/13 09:56:38;;;;;;;28.77;17.58;;;;;;;16.43;100.00;101519.81;5073575;28;20024;-67
2022/04/13 09:59:05;;;;;;;26.80;15.65;;;;;;;16.51;100.00;101523.28;5072752;28;20025;-69
2022/04/13 10:01:32;;;;;;;25.60;15.55;;;;;;;16.48;100.00;101525.09;5073249;28;20021;-69
2022/04/13 10:03:57;;;;;;;27.55;16.85;;;;;;;16.38;100.00;101522.53;5073723;28;20024;-69
2022/04/13 10:06:33;;;;;;;28.05;16.90;;;;;;;16.31;100.00;101518.13;5073316;28;20074;-69
2022/04/13 10:09:08;;;;;;;27.20;17.45;;;;;;;16.25;100.00;101525.28;5073322;28;20070;-69
2022/04/13 10:11:34;;;;;;;29.38;18.08;;;;;;;16.25;100.00;101528.88;5073003;28;20034;-69
2022/04/13 10:14:05;;;;;;;27.75;17.40;;;;;;;16.14;100.00;101520.06;5072949;28;20507;-69
2022/04/13 10:16:34;;;;;;;29.02;18.45;;;;;;;15.99;100.00;101521.94;5054624;28;20111;-69
2022/04/13 10:19:01;;;;;;;29.77;18.83;;;;;;;15.98;100.00;101525.50;5072301;28;20027;-69
2022/04/13 10:21:46;;;;;;;30.58;20.00;;;;;;;15.89;100.00;101524.66;5072467;28;20025;-69
2022/04/13 10:24:21;;;;;;;29.95;18.35;;;;;;;15.86;100.00;101521.16;5072779;28;20032;-69
2022/04/13 10:27:08;;;;;;;29.45;19.63;;;;;;;15.82;100.00;101534.50;5069703;28;20482;-69
2022/04/13 10:29:35;;;;;;;32.05;21.50;;;;;;;15.74;100.00;101531.88;5073287;28;20020;-69
2022/04/13 10:32:14;;;;;;;32.22;20.33;;;;;;;15.77;100.00;101531.84;5072328;28;20025;-68
2022/04/13 10:34:43;;;;;;;31.98;19.88;;;;;;;15.76;100.00;101534.53;5071576;28;20414;-69
2022/04/13 10:37:11;;;;;;;30.83;21.40;;;;;;;15.75;100.00;101538.06;5072719;28;20106;-69
2022/04/13 10:39:37;;;;;;;28.58;19.02;;;;;;;15.75;100.00;101540.75;5072458;28;20025;-68
2022/04/13 10:42:04;;;;;;;28.67;19.40;;;;;;;15.71;100.00;101541.66;5072211;28;20052;-68
2022/04/13 10:44:37;;;;;;;32.45;21.52;;;;;;;15.63;100.00;101547.03;5071347;28;20386;-68
2022/04/13 10:47:07;;;;;;;32.38;21.20;;;;;;;15.56;100.00;101554.16;5072802;28;20020;-69
2022/04/13 10:49:59;;;;;;;31.52;22.20;;;;;;;15.63;100.00;101541.69;5072122;28;20032;-69
2022/04/13 10:52:28;;;;;;;32.72;22.10;;;;;;;15.75;100.00;101544.28;5071658;28;20028;-68
2022/04/13 10:55:01;;;;;;;31.77;22.08;;;;;;;15.92;100.00;101548.66;5071319;28;20479;-68
2022/04/13 10:57:34;;;;;;;32.85;23.45;;;;;;;15.77;100.00;101553.16;5070665;28;20541;-68
2022/04/13 11:00:04;;;;;;;33.47;24.80;;;;;;;15.62;100.00;101566.56;5072536;28;20025;-69
2022/04/13 11:02:38;;;;;;;33.88;25.73;;;;;;;15.42;100.00;101566.66;5071596;28;20483;-68